Bluff Point, Indiana
Current Conditions -  °F | °C
As of 2:53 PM on Thursday 18 Dec 2014 (Local Time) from KMIE Reporting Station
Overcast Overcast  
Wind Chill: 22°   Ceiling: 1800
Heat Index: 27°   Visibility: 9mi
Dew Point: 20°   Wind: 5mph
Humidity: 75%   Direction: 300°WNW
Pressure: 30.21"   Gusts: NA
Location:  40.4312°N, 85.0058°W
Report Text: KMIE 181953Z 30004KT 9SM OVC018 M03/M07 A3021 RMK AO2 SLP238 T10281067
Loading
Personal Weather Stations






























Interactive Weather Map New forecast layout! Learn more

10-Day Weather Forecast

Advertisements
Track Severe Weather on mobile